createdAt,value
2019-03-05T00:00:28.046Z,991.53
2019-03-05T00:01:37.995Z,991.76
2019-03-05T00:02:47.678Z,991.44
2019-03-05T00:03:57.374Z,991.41
2019-03-05T00:05:07.349Z,991.47
2019-03-05T00:06:17.318Z,991.56
2019-03-05T00:07:27.266Z,991.64
2019-03-05T00:08:36.696Z,991.41
2019-03-05T00:09:45.910Z,991.56
2019-03-05T00:10:55.847Z,991.58
2019-03-05T00:12:05.772Z,991.37
2019-03-05T00:13:15.733Z,991.45
2019-03-05T00:14:25.418Z,991.48
2019-03-05T00:15:34.863Z,991.42
2019-03-05T00:16:44.793Z,991.47
2019-03-05T00:17:54.488Z,991.45
2019-03-05T00:19:04.441Z,991.6
2019-03-05T00:20:14.147Z,991.35
2019-03-05T00:21:23.860Z,991.39
2019-03-05T00:22:33.808Z,991.68
2019-03-05T00:23:43.791Z,991.52
2019-03-05T00:24:53.754Z,991.53
2019-03-05T00:26:03.687Z,991.59
2019-03-05T00:27:13.368Z,991.38
2019-03-05T00:28:23.323Z,991.29
2019-03-05T00:29:33.271Z,991.34
2019-03-05T00:30:43.216Z,991.37
2019-03-05T00:31:53.164Z,991.46
2019-03-05T00:33:02.865Z,991.34
2019-03-05T00:34:12.909Z,991.49
2019-03-05T00:35:22.857Z,991.56
2019-03-05T00:36:32.793Z,991.59
2019-03-05T00:37:42.739Z,991.51
2019-03-05T00:38:52.510Z,991.41
2019-03-05T00:40:02.235Z,991.41
2019-03-05T00:41:11.928Z,991.43
2019-03-05T00:42:21.864Z,991.57
2019-03-05T00:43:31.552Z,991.57
2019-03-05T00:44:40.992Z,991.43
2019-03-05T00:45:50.935Z,991.31
2019-03-05T00:47:00.623Z,991.54
2019-03-05T00:48:11.357Z,991.78
2019-03-05T00:49:21.196Z,991.36
2019-03-05T00:50:31.154Z,991.44
2019-03-05T00:51:41.106Z,991.43
2019-03-05T00:52:50.808Z,991.5
2019-03-05T00:54:00.754Z,991.88
2019-03-05T00:55:10.684Z,991.4
2019-03-05T00:56:20.638Z,991.54
2019-03-05T00:57:30.071Z,991.56
2019-03-05T00:58:39.772Z,991.78
2019-03-05T00:59:49.706Z,991.65
2019-03-05T01:00:59.650Z,991.64
2019-03-05T01:02:09.112Z,991.63
2019-03-05T01:03:19.061Z,991.53
2019-03-05T01:04:29.002Z,991.67
2019-03-05T01:05:38.942Z,991.63
2019-03-05T01:06:48.881Z,991.5
2019-03-05T01:07:58.564Z,991.43
2019-03-05T01:09:07.846Z,991.43
2019-03-05T01:10:17.539Z,991.4
2019-03-05T01:11:27.469Z,991.48
2019-03-05T01:12:37.421Z,991.37
2019-03-05T01:13:47.405Z,991.53
2019-03-05T01:14:57.367Z,991.4
2019-03-05T01:16:07.047Z,991.29
2019-03-05T01:17:16.995Z,991.51
2019-03-05T01:18:26.953Z,991.45
2019-03-05T01:19:36.405Z,991.54
2019-03-05T01:20:45.873Z,991.48
2019-03-05T01:21:55.062Z,991.43
2019-03-05T01:23:04.775Z,991.42
2019-03-05T01:24:14.788Z,991.37
2019-03-05T01:25:24.488Z,991.4
2019-03-05T01:26:34.180Z,991.53
2019-03-05T01:27:44.121Z,991.48
2019-03-05T01:28:53.814Z,991.55
2019-03-05T01:30:03.251Z,991.48
2019-03-05T01:31:13.190Z,991.74
2019-03-05T01:32:22.873Z,991.5
2019-03-05T01:33:32.643Z,991.57
2019-03-05T01:34:42.583Z,991.59
2019-03-05T01:35:51.761Z,991.53
2019-03-05T01:37:01.719Z,991.46
2019-03-05T01:38:11.655Z,991.36
2019-03-05T01:39:21.348Z,991.53
2019-03-05T01:40:31.322Z,991.51
2019-03-05T01:41:41.277Z,991.5
2019-03-05T01:42:51.219Z,991.55
2019-03-05T01:44:00.922Z,991.59
2019-03-05T01:45:10.881Z,991.45
2019-03-05T01:46:20.335Z,991.52
2019-03-05T01:47:30.264Z,991.56
2019-03-05T01:48:40.209Z,991.65
2019-03-05T01:49:50.185Z,991.65
2019-03-05T01:51:00.113Z,991.56
2019-03-05T01:52:10.059Z,991.48
2019-03-05T01:53:19.769Z,991.6
2019-03-05T01:54:29.717Z,991.51
2019-03-05T01:55:39.431Z,991.55
2019-03-05T01:56:49.387Z,991.61
2019-03-05T01:57:59.166Z,991.49
2019-03-05T01:59:08.868Z,991.53
2019-03-05T02:00:18.293Z,991.59
2019-03-05T02:01:28.234Z,991.7
2019-03-05T02:02:38.211Z,991.68
2019-03-05T02:03:47.737Z,991.73
2019-03-05T02:04:57.705Z,991.78
2019-03-05T02:06:07.681Z,991.72
2019-03-05T02:07:17.691Z,991.85
2019-03-05T02:08:27.637Z,991.72
2019-03-05T02:09:37.077Z,991.84
2019-03-05T02:10:47.070Z,991.75
2019-03-05T02:11:57.065Z,991.91
2019-03-05T02:13:06.993Z,991.89
2019-03-05T02:14:16.697Z,991.79
2019-03-05T02:15:26.641Z,991.8
2019-03-05T02:16:36.327Z,992.29
2019-03-05T02:17:46.265Z,991.7
2019-03-05T02:18:56.223Z,991.72
2019-03-05T02:20:05.665Z,991.94
2019-03-05T02:21:15.359Z,991.82
2019-03-05T02:22:24.551Z,991.82
2019-03-05T02:23:34.481Z,991.79
2019-03-05T02:24:44.431Z,991.66
2019-03-05T02:25:54.411Z,991.82
2019-03-05T02:27:04.350Z,992.19
2019-03-05T02:28:14.039Z,991.91
2019-03-05T02:29:23.970Z,991.68
2019-03-05T02:30:33.743Z,991.74
2019-03-05T02:31:43.498Z,991.76
2019-03-05T02:32:53.467Z,991.7
2019-03-05T02:34:03.227Z,991.94
2019-03-05T02:35:13.206Z,991.59
2019-03-05T02:36:23.152Z,991.75
2019-03-05T02:37:33.121Z,991.75
2019-03-05T02:38:43.071Z,991.74
2019-03-05T02:39:53.021Z,991.73
2019-03-05T02:41:03.154Z,992.01
2019-03-05T02:42:13.126Z,991.99
2019-03-05T02:43:23.063Z,991.7
2019-03-05T02:44:33.038Z,991.72
2019-03-05T02:45:42.987Z,991.82
2019-03-05T02:46:52.946Z,991.69
2019-03-05T02:48:02.917Z,991.78
2019-03-05T02:49:12.957Z,991.93
2019-03-05T02:50:22.912Z,991.63
2019-03-05T02:51:32.615Z,991.7
2019-03-05T02:52:42.666Z,991.76
2019-03-05T02:53:52.757Z,991.75
2019-03-05T02:55:02.701Z,991.83
2019-03-05T02:56:12.585Z,991.75
2019-03-05T02:57:22.299Z,991.79
2019-03-05T02:58:32.261Z,991.73
2019-03-05T02:59:42.207Z,991.86
2019-03-05T03:00:52.160Z,992.04
2019-03-05T03:02:01.876Z,991.79
2019-03-05T03:03:11.589Z,992.04
2019-03-05T03:04:21.539Z,991.87
2019-03-05T03:05:31.511Z,991.79
2019-03-05T03:06:41.223Z,991.78
2019-03-05T03:07:51.171Z,991.68
2019-03-05T03:09:00.875Z,991.68
2019-03-05T03:10:10.564Z,991.69
2019-03-05T03:11:20.515Z,991.63
2019-03-05T03:12:30.472Z,991.8
2019-03-05T03:13:40.454Z,991.57
2019-03-05T03:14:50.402Z,991.79
2019-03-05T03:16:00.357Z,991.86
2019-03-05T03:17:10.068Z,991.64
2019-03-05T03:18:20.042Z,991.57
2019-03-05T03:19:29.257Z,991.69
2019-03-05T03:20:39.223Z,991.63
2019-03-05T03:21:48.928Z,991.72
2019-03-05T03:22:58.906Z,991.78
2019-03-05T03:24:08.612Z,991.77
2019-03-05T03:25:18.336Z,991.68
2019-03-05T03:26:28.061Z,992.02
2019-03-05T03:27:37.770Z,991.91
2019-03-05T03:28:47.488Z,991.74
2019-03-05T03:29:57.451Z,991.75
2019-03-05T03:31:07.211Z,992.05
2019-03-05T03:32:17.412Z,991.71
2019-03-05T03:33:27.167Z,991.82
2019-03-05T03:34:37.151Z,991.83
2019-03-05T03:35:47.220Z,992.04
2019-03-05T03:36:56.978Z,991.87
2019-03-05T03:38:06.702Z,991.71
2019-03-05T03:39:16.638Z,991.89
2019-03-05T03:40:26.575Z,991.91
2019-03-05T03:41:36.605Z,991.91
2019-03-05T03:42:46.318Z,992.11
2019-03-05T03:43:56.053Z,991.79
2019-03-05T03:45:05.766Z,991.99
2019-03-05T03:46:15.812Z,991.8
2019-03-05T03:47:25.550Z,992.3
2019-03-05T03:48:35.515Z,991.93
2019-03-05T03:49:45.226Z,991.98
2019-03-05T03:50:55.201Z,991.93
2019-03-05T03:52:05.221Z,991.84
2019-03-05T03:53:14.948Z,992.15
2019-03-05T03:54:24.916Z,991.87
2019-03-05T03:55:34.717Z,991.97
2019-03-05T03:56:44.447Z,992.01
2019-03-05T03:57:54.147Z,991.91
2019-03-05T03:59:04.155Z,992.29
2019-03-05T04:00:14.111Z,992.11
2019-03-05T04:01:23.576Z,992.17
2019-03-05T04:02:33.517Z,992.22
2019-03-05T04:03:43.472Z,992.16
2019-03-05T04:04:53.166Z,992.09
2019-03-05T04:06:03.134Z,992.08
2019-03-05T04:07:13.089Z,992.26
2019-03-05T04:08:22.703Z,992.14
2019-03-05T04:09:32.704Z,992.17
2019-03-05T04:10:42.419Z,992.2
2019-03-05T04:11:52.368Z,992.32
2019-03-05T04:13:02.320Z,992.23
2019-03-05T04:14:12.283Z,992.31
2019-03-05T04:15:22.022Z,992.23
2019-03-05T04:16:31.748Z,992.24
2019-03-05T04:17:41.312Z,992.3
2019-03-05T04:18:51.017Z,992.34
2019-03-05T04:20:00.492Z,992.33
2019-03-05T04:21:09.953Z,992.24
2019-03-05T04:22:22.967Z,992.37
2019-03-05T04:23:32.669Z,992.48
2019-03-05T04:24:42.625Z,992.25
2019-03-05T04:25:52.350Z,992.26
2019-03-05T04:27:02.047Z,992.41
2019-03-05T04:28:11.753Z,992.38
2019-03-05T04:29:21.749Z,992.29
2019-03-05T04:30:31.462Z,992.29
2019-03-05T04:31:41.415Z,992.35
2019-03-05T04:32:51.478Z,992.3
2019-03-05T04:34:01.179Z,992.32
2019-03-05T04:35:10.906Z,992.5
2019-03-05T04:36:20.854Z,992.35
2019-03-05T04:37:30.791Z,992.37
2019-03-05T04:38:40.488Z,992.4
2019-03-05T04:39:50.189Z,992.45
2019-03-05T04:41:00.134Z,992.42
2019-03-05T04:42:10.071Z,992.36
2019-03-05T04:43:19.254Z,992.54
2019-03-05T04:44:28.950Z,992.38
2019-03-05T04:45:38.640Z,992.53
2019-03-05T04:46:48.582Z,992.49
2019-03-05T04:47:58.260Z,992.44
2019-03-05T04:49:08.203Z,992.49
2019-03-05T04:50:17.913Z,992.37
2019-03-05T04:51:27.909Z,992.54
2019-03-05T04:52:37.851Z,992.39
2019-03-05T04:53:47.805Z,992.48
2019-03-05T04:54:57.507Z,992.49
2019-03-05T04:56:07.214Z,992.64
2019-03-05T04:57:16.971Z,992.42
2019-03-05T04:58:26.671Z,992.63
2019-03-05T04:59:36.368Z,992.47
2019-03-05T05:00:46.319Z,992.42
2019-03-05T05:01:56.276Z,992.52
2019-03-05T05:03:05.980Z,992.67
2019-03-05T05:04:15.950Z,992.74
2019-03-05T05:05:25.934Z,992.49
2019-03-05T05:06:35.634Z,992.59
2019-03-05T05:07:45.326Z,992.45
2019-03-05T05:08:55.269Z,992.48
2019-03-05T05:10:04.970Z,992.51
2019-03-05T05:11:14.674Z,992.47
2019-03-05T05:12:24.624Z,992.65
2019-03-05T05:13:34.566Z,992.6
2019-03-05T05:14:44.506Z,992.78
2019-03-05T05:15:54.186Z,992.5
2019-03-05T05:17:03.886Z,992.72
2019-03-05T05:18:13.932Z,992.83
2019-03-05T05:19:23.626Z,992.59
2019-03-05T05:20:35.098Z,992.85
2019-03-05T05:21:44.792Z,992.6
2019-03-05T05:22:54.225Z,992.74
2019-03-05T05:24:04.166Z,992.76
2019-03-05T05:25:14.102Z,992.88
2019-03-05T05:26:24.038Z,992.76
2019-03-05T05:27:33.738Z,992.7
2019-03-05T05:28:43.668Z,992.83
2019-03-05T05:29:53.104Z,992.72
2019-03-05T05:31:02.536Z,992.75
2019-03-05T05:32:12.238Z,992.79
2019-03-05T05:33:22.193Z,992.8
2019-03-05T05:34:31.931Z,992.84
2019-03-05T05:35:41.888Z,992.82
2019-03-05T05:36:51.595Z,993.01
2019-03-05T05:38:01.063Z,992.95
2019-03-05T05:39:11.066Z,992.86
2019-03-05T05:40:21.016Z,992.97
2019-03-05T05:41:30.723Z,993.29
2019-03-05T05:42:40.436Z,992.9
2019-03-05T05:43:50.116Z,992.98
2019-03-05T05:44:59.593Z,992.93
2019-03-05T05:46:09.547Z,992.93
2019-03-05T05:47:19.284Z,992.92
2019-03-05T05:48:29.232Z,992.93
2019-03-05T05:49:38.926Z,993.18
2019-03-05T05:50:48.864Z,992.89
2019-03-05T05:51:58.832Z,993.1
2019-03-05T05:53:08.790Z,993.03
2019-03-05T05:54:18.734Z,993.21
2019-03-05T05:55:28.685Z,993.06
2019-03-05T05:56:38.396Z,993.02
2019-03-05T05:57:48.340Z,993.23
2019-03-05T05:58:58.039Z,993
2019-03-05T06:00:07.983Z,993.22
2019-03-05T06:01:17.682Z,993.05
2019-03-05T06:02:27.630Z,993.32
2019-03-05T06:03:37.945Z,993.26
2019-03-05T06:04:48.081Z,993.15
2019-03-05T06:05:58.046Z,993.23
2019-03-05T06:07:07.758Z,993.41
2019-03-05T06:08:17.197Z,993.06
2019-03-05T06:09:27.167Z,993.14
2019-03-05T06:10:37.106Z,993.19
2019-03-05T06:11:46.565Z,993.25
2019-03-05T06:12:56.532Z,993.19
2019-03-05T06:14:06.233Z,993.23
2019-03-05T06:15:15.920Z,993.3
2019-03-05T06:16:25.603Z,993.28
2019-03-05T06:17:35.568Z,993.27
2019-03-05T06:18:45.259Z,993.35
2019-03-05T06:19:54.946Z,993.34
2019-03-05T06:21:04.892Z,993.66
2019-03-05T06:22:14.849Z,993.29
2019-03-05T06:23:24.834Z,993.43
2019-03-05T06:24:34.550Z,993.35
2019-03-05T06:25:44.498Z,993.48
2019-03-05T06:26:54.475Z,993.44
2019-03-05T06:28:04.227Z,993.43
2019-03-05T06:29:14.182Z,993.41
2019-03-05T06:30:23.615Z,993.48
2019-03-05T06:31:33.306Z,993.62
2019-03-05T06:32:43.012Z,993.58
2019-03-05T06:33:52.709Z,993.61
2019-03-05T06:35:02.650Z,993.55
2019-03-05T06:36:12.595Z,993.63
2019-03-05T06:37:22.295Z,993.66
2019-03-05T06:38:33.671Z,993.61
2019-03-05T06:39:43.613Z,993.7
2019-03-05T06:40:53.615Z,993.7
2019-03-05T06:42:03.600Z,993.76
2019-03-05T06:43:13.591Z,993.68
2019-03-05T06:44:23.370Z,993.74
2019-03-05T06:45:33.314Z,993.97
2019-03-05T06:46:42.999Z,994.04
2019-03-05T06:47:52.968Z,994.05
2019-03-05T06:49:02.431Z,993.97
2019-03-05T06:50:12.121Z,993.82
2019-03-05T06:51:22.067Z,993.96
2019-03-05T06:52:31.991Z,993.84
2019-03-05T06:53:41.932Z,993.88
2019-03-05T06:54:51.885Z,993.81
2019-03-05T06:56:01.863Z,994.09
2019-03-05T06:57:11.565Z,993.94
2019-03-05T06:58:21.007Z,993.84
2019-03-05T06:59:30.979Z,993.89
2019-03-05T07:00:40.676Z,993.92
2019-03-05T07:01:50.644Z,993.98
2019-03-05T07:03:00.383Z,994
2019-03-05T07:04:10.593Z,993.9
2019-03-05T07:05:20.085Z,994.14
2019-03-05T07:06:31.934Z,994.01
2019-03-05T07:07:41.896Z,994.08
2019-03-05T07:08:51.659Z,993.99
2019-03-05T07:10:01.125Z,993.97
2019-03-05T07:11:11.124Z,994
2019-03-05T07:12:20.829Z,994.01
2019-03-05T07:13:30.299Z,994.04
2019-03-05T07:14:39.749Z,994.08
2019-03-05T07:15:49.205Z,994.09
2019-03-05T07:16:59.171Z,994.03
2019-03-05T07:18:08.625Z,994.11
2019-03-05T07:19:18.638Z,994.12
2019-03-05T07:20:28.603Z,994.16
2019-03-05T07:21:38.577Z,994.06
2019-03-05T07:22:48.539Z,994.22
2019-03-05T07:23:58.232Z,994.11
2019-03-05T07:25:08.192Z,994.09
2019-03-05T07:26:17.898Z,994.09
2019-03-05T07:27:27.856Z,994.27
2019-03-05T07:28:37.530Z,994.15
2019-03-05T07:29:46.979Z,994.29
2019-03-05T07:30:56.672Z,994.16
2019-03-05T07:32:06.373Z,994.23
2019-03-05T07:33:16.083Z,994.28
2019-03-05T07:34:25.773Z,994.21
2019-03-05T07:35:35.478Z,994.3
2019-03-05T07:36:45.409Z,994.36
2019-03-05T07:37:55.383Z,994.54
2019-03-05T07:39:05.149Z,994.28
2019-03-05T07:40:14.923Z,994.26
2019-03-05T07:41:24.879Z,994.41
2019-03-05T07:42:34.584Z,994.39
2019-03-05T07:43:44.564Z,994.3
2019-03-05T07:44:54.520Z,994.29
2019-03-05T07:46:04.518Z,994.37
2019-03-05T07:47:14.287Z,994.39
2019-03-05T07:48:24.259Z,994.35
2019-03-05T07:49:43.164Z,994.31
2019-03-05T07:50:53.827Z,994.46
2019-03-05T07:52:03.589Z,994.42
2019-03-05T07:53:13.574Z,994.38
2019-03-05T07:54:23.516Z,994.48
2019-03-05T07:55:32.965Z,994.38
2019-03-05T07:56:42.986Z,994.44
2019-03-05T07:57:53.013Z,994.34
2019-03-05T07:59:02.981Z,994.52
2019-03-05T08:00:12.930Z,994.75
2019-03-05T08:01:22.902Z,994.42
2019-03-05T08:02:32.614Z,994.41
2019-03-05T08:03:42.567Z,994.51
2019-03-05T08:04:52.527Z,994.45
2019-03-05T08:06:02.498Z,994.42
2019-03-05T08:07:11.944Z,994.41
2019-03-05T08:08:26.502Z,994.46
2019-03-05T08:09:36.623Z,994.62
2019-03-05T08:10:46.603Z,994.64
2019-03-05T08:11:56.319Z,994.77
2019-03-05T08:13:06.273Z,994.69
2019-03-05T08:14:16.317Z,994.96
2019-03-05T08:15:26.077Z,994.69
2019-03-05T08:16:35.774Z,994.74
2019-03-05T08:17:46.974Z,994.75
2019-03-05T08:18:56.844Z,994.85
2019-03-05T08:20:06.827Z,994.78
2019-03-05T08:21:16.572Z,994.8
2019-03-05T08:22:26.550Z,994.79
2019-03-05T08:23:36.521Z,994.83
2019-03-05T08:24:48.999Z,994.8
2019-03-05T08:25:58.952Z,994.79
2019-03-05T08:27:08.901Z,994.78
2019-03-05T08:28:18.843Z,994.94
2019-03-05T08:29:28.869Z,994.99
2019-03-05T08:30:38.557Z,994.89
2019-03-05T08:31:48.258Z,994.93
2019-03-05T08:32:57.977Z,994.99
2019-03-05T08:34:07.964Z,994.86
2019-03-05T08:35:18.005Z,994.95
2019-03-05T08:36:27.219Z,994.93
2019-03-05T08:37:36.713Z,994.94
2019-03-05T08:38:46.777Z,994.97
2019-03-05T08:39:56.485Z,995.16
2019-03-05T08:41:06.452Z,995.01
2019-03-05T08:42:16.161Z,994.92
2019-03-05T08:43:26.133Z,995.14
2019-03-05T08:44:36.091Z,995.1
2019-03-05T08:45:57.491Z,995.03
2019-03-05T08:47:07.695Z,995.05
2019-03-05T08:48:17.652Z,995.13
2019-03-05T08:49:27.624Z,995.16
2019-03-05T08:50:37.574Z,995.05
2019-03-05T08:51:47.267Z,995.19
2019-03-05T08:52:57.242Z,995.08
2019-03-05T08:54:07.887Z,994.99
2019-03-05T08:55:17.410Z,995.29
2019-03-05T08:56:27.124Z,995.15
2019-03-05T08:57:37.093Z,995.22
2019-03-05T08:58:46.882Z,995.33
2019-03-05T08:59:56.843Z,995.39
2019-03-05T09:01:06.803Z,995.31
2019-03-05T09:02:16.513Z,995.35
2019-03-05T09:03:26.214Z,995.15
2019-03-05T09:04:36.200Z,995.26
2019-03-05T09:05:45.914Z,995.2
2019-03-05T09:06:55.863Z,995.31
2019-03-05T09:08:05.813Z,995.12
2019-03-05T09:09:15.334Z,995.07
2019-03-05T09:10:25.045Z,995.12
2019-03-05T09:11:34.521Z,995.1
2019-03-05T09:12:44.514Z,995.22
2019-03-05T09:13:54.481Z,995.3
2019-03-05T09:15:04.208Z,995.21
2019-03-05T09:16:14.169Z,995.18
2019-03-05T09:17:23.874Z,995.27
2019-03-05T09:18:33.596Z,995.53
2019-03-05T09:19:43.050Z,995.32
2019-03-05T09:20:52.769Z,995.38
2019-03-05T09:22:02.213Z,995.52
2019-03-05T09:23:12.254Z,995.55
2019-03-05T09:24:22.211Z,995.46
2019-03-05T09:25:32.169Z,995.51
2019-03-05T09:26:50.653Z,995.92
2019-03-05T09:28:00.738Z,995.47
2019-03-05T09:29:12.654Z,995.42
2019-03-05T09:30:22.426Z,995.55
2019-03-05T09:31:31.898Z,995.37
2019-03-05T09:32:41.859Z,995.7
2019-03-05T09:33:51.564Z,995.66
2019-03-05T09:35:01.549Z,995.53
2019-03-05T09:36:11.534Z,995.82
2019-03-05T09:37:21.705Z,995.66
2019-03-05T09:38:31.420Z,995.65
2019-03-05T09:39:41.370Z,995.55
2019-03-05T09:40:51.118Z,995.67
2019-03-05T09:42:00.875Z,995.67
2019-03-05T09:43:10.598Z,995.64
2019-03-05T09:44:20.782Z,995.81
2019-03-05T09:45:30.815Z,995.78
2019-03-05T09:46:40.551Z,995.62
2019-03-05T09:47:50.547Z,995.71
2019-03-05T09:49:00.509Z,995.7
2019-03-05T09:50:10.229Z,995.73
2019-03-05T09:51:20.273Z,995.82
2019-03-05T09:52:29.990Z,995.72
2019-03-05T09:53:39.998Z,995.86
2019-03-05T09:54:50.030Z,995.85
2019-03-05T09:55:59.769Z,995.87
2019-03-05T09:57:09.766Z,995.78
2019-03-05T09:58:19.223Z,995.78
2019-03-05T09:59:29.187Z,995.85
2019-03-05T10:00:38.907Z,995.85
2019-03-05T10:01:48.375Z,995.97
2019-03-05T10:02:58.371Z,996.02
2019-03-05T10:04:08.344Z,995.7
2019-03-05T10:05:18.322Z,996.19
2019-03-05T10:06:28.298Z,996.04
2019-03-05T10:07:38.289Z,995.98
2019-03-05T10:08:48.232Z,995.9
2019-03-05T10:09:58.014Z,996.14
2019-03-05T10:11:08.006Z,996.21
2019-03-05T10:12:17.957Z,995.99
2019-03-05T10:13:30.714Z,996.15
2019-03-05T10:14:40.753Z,996.11
2019-03-05T10:15:53.365Z,996.15
2019-03-05T10:17:03.054Z,996.08
2019-03-05T10:18:13.200Z,996.17
2019-03-05T10:19:22.988Z,996.21
2019-03-05T10:20:32.755Z,996.26
2019-03-05T10:21:46.400Z,996.24
2019-03-05T10:22:57.969Z,996.33
2019-03-05T10:24:10.625Z,996.12
2019-03-05T10:25:20.617Z,996.13
2019-03-05T10:26:30.335Z,996.19
2019-03-05T10:27:40.560Z,996.37
2019-03-05T10:28:50.335Z,996.45
2019-03-05T10:30:00.266Z,996.34
2019-03-05T10:31:10.263Z,996.33
2019-03-05T10:32:21.646Z,996.21
2019-03-05T10:33:31.478Z,996.12
2019-03-05T10:34:41.184Z,996.31
2019-03-05T10:35:50.962Z,996.08
2019-03-05T10:37:00.952Z,997.02
2019-03-05T10:38:24.222Z,996.39
2019-03-05T10:39:34.184Z,996.27
2019-03-05T10:40:43.938Z,996.42
2019-03-05T10:41:53.970Z,996.45
2019-03-05T10:43:08.269Z,996.34
2019-03-05T10:44:18.511Z,996.22
2019-03-05T10:45:28.477Z,996.28
2019-03-05T10:46:38.506Z,996.21
2019-03-05T10:47:48.505Z,996.35
2019-03-05T10:48:58.488Z,996.32
2019-03-05T10:50:15.168Z,996.36
2019-03-05T10:51:25.308Z,996.21
2019-03-05T10:52:35.282Z,996.22
2019-03-05T10:53:45.246Z,996.38
2019-03-05T10:54:54.985Z,996.35
2019-03-05T10:56:04.723Z,996.46
2019-03-05T10:57:14.429Z,996.3
2019-03-05T10:58:33.065Z,996.5
2019-03-05T10:59:43.586Z,996.26
2019-03-05T11:00:53.567Z,996.22
2019-03-05T11:02:03.270Z,996.41
2019-03-05T11:03:12.975Z,996.37
2019-03-05T11:04:22.687Z,996.35
2019-03-05T11:05:32.448Z,996.33
2019-03-05T11:06:42.150Z,996.41
2019-03-05T11:07:52.107Z,996.37
2019-03-05T11:09:02.072Z,996.48
2019-03-05T11:10:12.060Z,996.26
2019-03-05T11:11:22.120Z,996.27
2019-03-05T11:12:32.068Z,996.26
2019-03-05T11:13:42.022Z,996.5
2019-03-05T11:14:52.002Z,996.23
2019-03-05T11:16:01.977Z,996.39
2019-03-05T11:17:11.949Z,996.43
2019-03-05T11:18:29.158Z,996.37
2019-03-05T11:19:39.144Z,996.34
2019-03-05T11:20:49.107Z,996.38
2019-03-05T11:21:58.830Z,996.4
2019-03-05T11:23:11.369Z,996.26
2019-03-05T11:24:21.122Z,996.29
2019-03-05T11:25:30.817Z,996.45
2019-03-05T11:26:40.811Z,996.27
2019-03-05T11:27:50.526Z,996.29
2019-03-05T11:29:00.514Z,996.45
2019-03-05T11:30:10.494Z,996.38
2019-03-05T11:31:20.238Z,996.31
2019-03-05T11:32:30.194Z,996.46
2019-03-05T11:33:39.918Z,996.24
2019-03-05T11:34:49.880Z,996.49
2019-03-05T11:35:59.839Z,996.53
2019-03-05T11:37:09.567Z,996.46
2019-03-05T11:38:19.895Z,996.47
2019-03-05T11:39:29.903Z,996.36
2019-03-05T11:40:39.588Z,996.29
2019-03-05T11:41:49.540Z,996.4
2019-03-05T11:43:00.107Z,996.29
2019-03-05T11:44:09.808Z,996.33
2019-03-05T11:45:19.261Z,996.48
2019-03-05T11:46:29.218Z,996.43
2019-03-05T11:47:39.172Z,996.38
2019-03-05T11:48:49.150Z,996.44
2019-03-05T11:49:59.116Z,996.39
2019-03-05T11:51:09.080Z,996.3
2019-03-05T11:52:19.052Z,996.45
2019-03-05T11:53:29.035Z,996.33
2019-03-05T11:54:38.759Z,996.4
2019-03-05T11:55:48.730Z,996.29
2019-03-05T11:56:58.444Z,996.1
2019-03-05T11:58:09.358Z,996.32
2019-03-05T11:59:18.829Z,996.33
2019-03-05T12:00:28.853Z,996.48
2019-03-05T12:01:38.563Z,996.44
2019-03-05T12:02:48.514Z,996.41
2019-03-05T12:03:58.232Z,996.43
2019-03-05T12:05:08.207Z,996.37
2019-03-05T12:06:17.911Z,996.34
2019-03-05T12:07:27.610Z,996.41
2019-03-05T12:08:37.582Z,996.71
2019-03-05T12:09:47.288Z,996.42
2019-03-05T12:10:56.762Z,996.39
2019-03-05T12:12:06.472Z,996.35
2019-03-05T12:13:16.202Z,996.36
2019-03-05T12:14:26.184Z,996.39
2019-03-05T12:15:35.919Z,996.51
2019-03-05T12:16:45.900Z,996.54
2019-03-05T12:17:55.619Z,996.44
2019-03-05T12:19:05.580Z,996.51
2019-03-05T12:20:15.026Z,996.35
2019-03-05T12:21:24.729Z,996.46
2019-03-05T12:22:34.681Z,996.51
2019-03-05T12:23:47.210Z,996.78
2019-03-05T12:24:57.554Z,996.57
2019-03-05T12:26:09.578Z,996.56
2019-03-05T12:27:19.280Z,996.58
2019-03-05T12:28:28.987Z,997.05
2019-03-05T12:29:38.955Z,996.58
2019-03-05T12:30:48.647Z,996.73
2019-03-05T12:31:58.622Z,996.98
2019-03-05T12:33:08.090Z,996.83
2019-03-05T12:34:17.797Z,996.71
2019-03-05T12:35:27.784Z,996.64
2019-03-05T12:36:40.473Z,996.67
2019-03-05T12:37:50.242Z,996.79
2019-03-05T12:38:59.954Z,996.67
2019-03-05T12:40:09.979Z,996.67
2019-03-05T12:41:19.746Z,996.67
2019-03-05T12:42:29.195Z,996.71
2019-03-05T12:43:39.144Z,996.69
2019-03-05T12:44:48.604Z,996.74
2019-03-05T12:45:58.567Z,996.68
2019-03-05T12:47:08.293Z,996.72
2019-03-05T12:48:18.887Z,996.71
2019-03-05T12:49:40.043Z,996.76
2019-03-05T12:50:49.771Z,996.75
2019-03-05T12:51:59.479Z,996.72
2019-03-05T12:53:09.457Z,996.74
2019-03-05T12:54:21.371Z,996.74
2019-03-05T12:55:30.830Z,996.57
2019-03-05T12:56:40.750Z,996.52
2019-03-05T12:57:50.497Z,996.77
2019-03-05T12:59:00.195Z,996.65
2019-03-05T13:00:14.377Z,996.66
2019-03-05T13:01:24.333Z,996.56
2019-03-05T13:02:35.532Z,996.67
2019-03-05T13:03:45.557Z,996.58
2019-03-05T13:04:55.518Z,996.88
2019-03-05T13:06:05.563Z,996.86
2019-03-05T13:07:17.654Z,996.8
2019-03-05T13:08:28.790Z,996.82
2019-03-05T13:09:38.560Z,996.75
2019-03-05T13:10:52.982Z,996.81
2019-03-05T13:12:02.947Z,996.78
2019-03-05T13:13:13.877Z,996.81
2019-03-05T13:14:23.969Z,996.76
2019-03-05T13:15:33.921Z,996.88
2019-03-05T13:16:43.882Z,996.88
2019-03-05T13:17:53.843Z,996.82
2019-03-05T13:19:05.255Z,997.14
2019-03-05T13:20:22.470Z,996.8
2019-03-05T13:21:33.991Z,996.85
2019-03-05T13:22:49.311Z,996.9
2019-03-05T13:23:59.296Z,996.94
2019-03-05T13:25:14.333Z,996.99
2019-03-05T13:26:29.255Z,997
2019-03-05T13:27:45.073Z,996.93
2019-03-05T13:28:58.068Z,996.96
2019-03-05T13:30:10.189Z,996.94
2019-03-05T13:31:23.819Z,996.95
2019-03-05T13:32:33.306Z,996.98
2019-03-05T13:33:43.288Z,996.98
2019-03-05T13:34:53.007Z,996.92
2019-03-05T13:36:05.079Z,996.92
2019-03-05T13:37:24.838Z,997.06
2019-03-05T13:38:41.650Z,997
2019-03-05T13:39:54.915Z,997.02
2019-03-05T13:41:07.693Z,997
2019-03-05T13:42:20.942Z,997.19
2019-03-05T13:43:39.012Z,997.06
2019-03-05T13:44:52.587Z,997.08
2019-03-05T13:46:09.884Z,997.12
2019-03-05T13:47:22.503Z,997.1
2019-03-05T13:48:32.491Z,997.13
2019-03-05T13:49:42.454Z,997.08
2019-03-05T13:51:04.450Z,997.2
2019-03-05T13:52:14.423Z,997.05
2019-03-05T13:53:24.387Z,997.14
2019-03-05T13:54:36.706Z,997.1
2019-03-05T13:55:51.447Z,997.15
2019-03-05T13:57:04.559Z,997.2
2019-03-05T13:58:19.101Z,997.27
2019-03-05T13:59:28.823Z,997.06
2019-03-05T14:00:38.519Z,997.13
2019-03-05T14:01:51.227Z,997.2
2019-03-05T14:03:01.195Z,997.35
2019-03-05T14:04:10.944Z,997.28
2019-03-05T14:05:22.031Z,997.17
2019-03-05T14:06:32.035Z,997.16
2019-03-05T14:07:42.185Z,997.27
2019-03-05T14:08:51.941Z,997.23
2019-03-05T14:10:01.944Z,997.15
2019-03-05T14:11:11.242Z,997.26
2019-03-05T14:12:21.268Z,997.36
2019-03-05T14:13:31.274Z,997.42
2019-03-05T14:14:41.047Z,997.37
2019-03-05T14:15:50.313Z,997.41
2019-03-05T14:17:00.353Z,997.53
2019-03-05T14:18:12.346Z,997.54
2019-03-05T14:19:22.125Z,997.45
2019-03-05T14:20:34.907Z,997.5
2019-03-05T14:21:45.165Z,997.5
2019-03-05T14:22:54.696Z,997.45
2019-03-05T14:24:04.433Z,997.52
2019-03-05T14:25:14.461Z,997.62
2019-03-05T14:26:24.502Z,997.42
2019-03-05T14:27:34.573Z,997.51
2019-03-05T14:28:44.704Z,997.43
2019-03-05T14:29:54.744Z,997.46
2019-03-05T14:31:07.848Z,997.51
2019-03-05T14:32:17.902Z,997.5
2019-03-05T14:33:27.876Z,997.59
2019-03-05T14:34:37.995Z,997.41
2019-03-05T14:35:48.052Z,997.49
2019-03-05T14:36:58.085Z,997.6
2019-03-05T14:38:07.824Z,997.56
2019-03-05T14:39:17.846Z,997.52